createdAt,value
2022-08-16T00:01:34.261Z,100509.00
2022-08-16T00:04:10.410Z,100501.88
2022-08-16T00:06:43.985Z,100508.19
2022-08-16T00:09:14.447Z,100509.16
2022-08-16T00:11:46.620Z,100510.94
2022-08-16T00:14:29.258Z,100496.72
2022-08-16T00:17:15.860Z,100501.31
2022-08-16T00:19:53.794Z,100505.84
2022-08-16T00:22:28.321Z,100506.72
2022-08-16T00:24:58.439Z,100496.94
2022-08-16T00:27:30.796Z,100500.56
2022-08-16T00:30:09.258Z,100502.38
2022-08-16T00:32:57.061Z,100506.00
2022-08-16T00:35:29.600Z,100507.81
2022-08-16T00:38:41.350Z,100506.09
2022-08-16T00:41:00.087Z,100503.53
2022-08-16T00:43:43.368Z,100509.00
2022-08-16T00:46:34.969Z,100508.22
2022-08-16T00:49:07.160Z,100501.19
2022-08-16T00:51:55.263Z,100508.47
2022-08-16T00:54:32.938Z,100499.50
2022-08-16T00:57:05.204Z,100508.47
2022-08-16T00:59:42.467Z,100511.16
2022-08-16T01:02:31.930Z,100504.88
2022-08-16T01:05:09.547Z,100501.31
2022-08-16T01:07:52.118Z,100502.25
2022-08-16T01:10:31.939Z,100501.38
2022-08-16T01:13:07.994Z,100503.16
2022-08-16T01:15:43.047Z,100489.81
2022-08-16T01:18:39.829Z,100492.56
2022-08-16T01:21:24.414Z,100492.59
2022-08-16T01:24:51.688Z,100489.09
2022-08-16T01:27:17.646Z,100484.69
2022-08-16T01:29:58.352Z,100478.47
2022-08-16T01:32:31.468Z,100483.91
2022-08-16T01:35:03.872Z,100485.69
2022-08-16T01:37:42.624Z,100487.47
2022-08-16T01:40:17.562Z,100487.47
2022-08-16T01:42:49.660Z,100489.25
2022-08-16T01:45:24.345Z,100487.47
2022-08-16T01:48:19.431Z,100491.09
2022-08-16T01:51:09.080Z,100492.88
2022-08-16T01:53:43.692Z,100487.56
2022-08-16T01:56:24.919Z,100489.38
2022-08-16T01:58:55.782Z,100486.75
2022-08-16T02:01:28.139Z,100487.69
2022-08-16T02:04:10.749Z,100490.41
2022-08-16T02:06:46.188Z,100491.34
2022-08-16T02:09:19.404Z,100490.47
2022-08-16T02:12:50.626Z,100492.22
2022-08-16T02:14:51.143Z,100496.78
2022-08-16T02:17:20.940Z,100499.50
2022-08-16T02:19:59.286Z,100495.03
2022-08-16T02:22:34.181Z,100496.84
2022-08-16T02:25:10.428Z,100500.44
2022-08-16T02:27:43.897Z,100492.47
2022-08-16T02:30:35.733Z,100493.34
2022-08-16T02:33:08.536Z,100489.88
2022-08-16T02:35:54.074Z,100494.34
2022-08-16T02:38:28.518Z,100494.38
2022-08-16T02:40:59.170Z,100488.06
2022-08-16T02:43:35.499Z,100486.31
2022-08-16T02:46:09.876Z,100496.09
2022-08-16T02:48:49.388Z,100489.88
2022-08-16T02:51:19.281Z,100491.66
2022-08-16T02:53:53.239Z,100485.38
2022-08-16T02:56:23.650Z,100488.94
2022-08-16T02:59:11.610Z,100482.72
2022-08-16T03:01:44.392Z,100489.00
2022-08-16T03:04:46.472Z,100481.81
2022-08-16T03:07:05.008Z,100488.06
2022-08-16T03:09:34.751Z,100477.34
2022-08-16T03:12:05.615Z,100482.72
2022-08-16T03:14:38.229Z,100466.63
2022-08-16T03:17:08.006Z,100473.81
2022-08-16T03:19:45.815Z,100472.00
2022-08-16T03:22:27.951Z,100474.72
2022-08-16T03:25:01.651Z,100471.19
2022-08-16T03:27:33.027Z,100473.84
2022-08-16T03:30:16.432Z,100472.06
2022-08-16T03:32:51.407Z,100476.56
2022-08-16T03:35:23.120Z,100466.78
2022-08-16T03:38:02.782Z,100466.78
2022-08-16T03:40:35.627Z,100460.56
2022-08-16T03:43:20.581Z,100464.19
2022-08-16T03:45:55.362Z,100450.84
2022-08-16T03:48:37.088Z,100457.19
2022-08-16T03:51:13.617Z,100459.00
2022-08-16T03:53:44.848Z,100459.06
2022-08-16T03:56:28.087Z,100455.53
2022-08-16T03:59:00.486Z,100452.06
2022-08-16T04:01:32.980Z,100447.66
2022-08-16T04:04:04.013Z,100455.72
2022-08-16T04:06:34.324Z,100451.31
2022-08-16T04:09:04.104Z,100461.19
2022-08-16T04:11:36.932Z,100460.31
2022-08-16T04:14:30.731Z,100467.50
2022-08-16T04:17:01.700Z,100456.84
2022-08-16T04:19:32.504Z,100464.03
2022-08-16T04:22:08.532Z,100474.81
2022-08-16T04:24:38.665Z,100473.06
2022-08-16T04:27:10.797Z,100462.41
2022-08-16T04:29:46.417Z,100473.16
2022-08-16T04:32:19.857Z,100474.06
2022-08-16T04:34:50.074Z,100475.94
2022-08-16T04:37:19.987Z,100480.44
2022-08-16T04:39:57.029Z,100480.47
2022-08-16T04:42:29.660Z,100484.06
2022-08-16T04:45:01.980Z,100482.34
2022-08-16T04:47:35.936Z,100485.03
2022-08-16T04:50:07.863Z,100487.75
2022-08-16T04:52:37.981Z,100484.22
2022-08-16T04:55:11.915Z,100492.25
2022-08-16T04:57:43.050Z,100489.56
2022-08-16T05:00:31.734Z,100485.81
2022-08-16T05:03:09.144Z,100476.59
2022-08-16T05:05:45.142Z,100488.84
2022-08-16T05:08:29.870Z,100484.94
2022-08-16T05:11:05.201Z,100486.31
2022-08-16T05:13:41.073Z,100488.59
2022-08-16T05:16:19.722Z,100488.16
2022-08-16T05:18:56.879Z,100481.47
2022-08-16T05:21:38.588Z,100486.38
2022-08-16T05:24:10.259Z,100483.22
2022-08-16T05:26:43.517Z,100487.28
2022-08-16T05:29:21.230Z,100494.16
2022-08-16T05:31:53.186Z,100491.63
2022-08-16T05:34:25.918Z,100488.25
2022-08-16T05:36:57.518Z,100488.50
2022-08-16T05:39:30.104Z,100491.34
2022-08-16T05:42:03.275Z,100488.59
2022-08-16T05:44:32.972Z,100491.81
2022-08-16T05:47:04.868Z,100496.72
2022-08-16T05:49:40.262Z,100493.00
2022-08-16T05:52:13.533Z,100503.81
2022-08-16T05:54:47.663Z,100502.16
2022-08-16T05:57:34.491Z,100503.78
2022-08-16T06:00:09.405Z,100509.69
2022-08-16T06:02:39.751Z,100511.03
2022-08-16T06:05:12.871Z,100505.09
2022-08-16T06:07:45.680Z,100504.63
2022-08-16T06:10:32.941Z,100513.94
2022-08-16T06:13:03.676Z,100510.69
2022-08-16T06:15:33.494Z,100512.97
2022-08-16T06:18:04.967Z,100510.69
2022-08-16T06:20:37.465Z,100527.28
2022-08-16T06:23:26.487Z,100524.16
2022-08-16T06:25:57.191Z,100524.69
2022-08-16T06:28:35.949Z,100531.53
2022-08-16T06:31:06.856Z,100532.03
2022-08-16T06:33:44.760Z,100528.19
2022-08-16T06:36:17.628Z,100529.78
2022-08-16T06:38:55.316Z,100526.94
2022-08-16T06:41:27.454Z,100526.81
2022-08-16T06:43:57.884Z,100529.59
2022-08-16T06:46:34.186Z,100535.75
2022-08-16T06:49:05.271Z,100530.25
2022-08-16T06:51:45.982Z,100536.41
2022-08-16T06:54:19.167Z,100529.97
2022-08-16T06:56:52.540Z,100534.31
2022-08-16T06:59:25.701Z,100536.84
2022-08-16T07:01:58.332Z,100531.31
2022-08-16T07:04:32.690Z,100533.72
2022-08-16T07:07:09.909Z,100537.84
2022-08-16T07:09:40.555Z,100533.94
2022-08-16T07:12:12.058Z,100537.16
2022-08-16T07:14:45.207Z,100536.88
2022-08-16T07:17:18.416Z,100542.97
2022-08-16T07:20:29.201Z,100547.38
2022-08-16T07:22:42.641Z,100549.03
2022-08-16T07:25:22.847Z,100548.03
2022-08-16T07:27:52.654Z,100552.44
2022-08-16T07:30:39.925Z,100554.03
2022-08-16T07:33:16.195Z,100547.66
2022-08-16T07:35:49.781Z,100547.59
2022-08-16T07:38:33.764Z,100548.59
2022-08-16T07:41:09.430Z,100555.94
2022-08-16T07:43:41.607Z,100552.31
2022-08-16T07:46:38.652Z,100553.13
2022-08-16T07:49:03.753Z,100547.47
2022-08-16T07:51:37.036Z,100548.03
2022-08-16T07:54:20.585Z,100549.69
2022-08-16T07:56:50.734Z,100548.53
2022-08-16T07:59:23.967Z,100547.38
2022-08-16T08:01:53.930Z,100555.28
2022-08-16T08:04:26.706Z,100552.28
2022-08-16T08:07:09.003Z,100546.59
2022-08-16T08:09:43.518Z,100561.81
2022-08-16T08:12:32.241Z,100558.09
2022-08-16T08:15:04.155Z,100559.47
2022-08-16T08:17:42.903Z,100561.81
2022-08-16T08:20:20.760Z,100559.56
2022-08-16T08:22:59.969Z,100559.16
2022-08-16T08:25:54.350Z,100560.66
2022-08-16T08:28:23.617Z,100554.09
2022-08-16T08:31:01.508Z,100553.97
2022-08-16T08:33:33.922Z,100553.63
2022-08-16T08:36:07.346Z,100558.69
2022-08-16T08:38:45.236Z,100554.94
2022-08-16T08:41:19.739Z,100559.19
2022-08-16T08:43:57.286Z,100558.97
2022-08-16T08:46:28.422Z,100563.19
2022-08-16T08:49:08.824Z,100562.84
2022-08-16T08:51:38.952Z,100566.91
2022-08-16T08:54:18.605Z,100568.38
2022-08-16T08:56:53.240Z,100573.44
2022-08-16T08:59:23.679Z,100570.31
2022-08-16T09:01:57.587Z,100577.97
2022-08-16T09:04:29.007Z,100585.94
2022-08-16T09:07:01.125Z,100595.75
2022-08-16T09:09:33.719Z,100590.34
2022-08-16T09:12:09.108Z,100591.31
2022-08-16T09:14:58.826Z,100595.91
2022-08-16T09:17:49.202Z,100598.75
2022-08-16T09:20:20.009Z,100588.91
2022-08-16T09:22:53.150Z,100592.47
2022-08-16T09:25:33.867Z,100589.63
2022-08-16T09:28:09.360Z,100597.41
2022-08-16T09:30:44.078Z,100596.38
2022-08-16T09:33:19.980Z,100598.88
2022-08-16T09:35:53.346Z,100594.94
2022-08-16T09:38:31.891Z,100601.81
2022-08-16T09:41:03.455Z,100599.84
2022-08-16T09:43:59.293Z,100596.97
2022-08-16T09:46:45.991Z,100604.00
2022-08-16T09:49:20.075Z,100599.31
2022-08-16T09:51:53.676Z,100606.50
2022-08-16T09:54:23.742Z,100604.72
2022-08-16T09:56:53.955Z,100593.72
2022-08-16T09:59:30.609Z,100600.94
2022-08-16T10:02:26.471Z,100595.78
2022-08-16T10:04:54.790Z,100602.22
2022-08-16T10:07:25.458Z,100599.63
2022-08-16T10:09:56.497Z,100606.22
2022-08-16T10:12:42.428Z,100607.25
2022-08-16T10:15:17.040Z,100605.41
2022-08-16T10:18:00.620Z,100607.09
2022-08-16T10:20:34.974Z,100606.13
2022-08-16T10:23:07.112Z,100623.25
2022-08-16T10:27:16.985Z,100617.81
2022-08-16T10:28:32.548Z,100612.50
2022-08-16T10:31:16.947Z,100616.03
2022-08-16T10:34:04.091Z,100615.13
2022-08-16T10:36:38.902Z,100622.22
2022-08-16T10:39:09.936Z,100625.69
2022-08-16T10:41:40.066Z,100630.06
2022-08-16T10:44:09.979Z,100629.91
2022-08-16T10:46:42.500Z,100637.88
2022-08-16T10:49:18.106Z,100633.13
2022-08-16T10:52:03.481Z,100645.75
2022-08-16T10:54:58.564Z,100646.53
2022-08-16T10:57:32.761Z,100645.28
2022-08-16T11:00:04.876Z,100653.97
2022-08-16T11:02:57.606Z,100651.00
2022-08-16T11:05:27.249Z,100655.66
2022-08-16T11:07:57.375Z,100661.13
2022-08-16T11:19:12.543Z,100658.78
2022-08-16T11:24:42.710Z,100667.41
2022-08-16T11:27:19.732Z,100670.75
2022-08-16T11:29:52.847Z,100668.69
2022-08-16T11:32:31.889Z,100676.03
2022-08-16T11:35:10.393Z,100679.06
2022-08-16T11:40:38.877Z,100688.16
2022-08-16T11:43:11.081Z,100683.78
2022-08-16T11:45:42.418Z,100700.59
2022-08-16T11:48:14.139Z,100694.81
2022-08-16T11:50:46.996Z,100695.31
2022-08-16T11:53:17.351Z,100696.84
2022-08-16T11:55:47.174Z,100697.28
2022-08-16T11:58:25.654Z,100706.78
2022-08-16T12:00:57.596Z,100707.28
2022-08-16T12:03:34.668Z,100712.47
2022-08-16T12:06:25.181Z,100711.69
2022-08-16T12:09:02.135Z,100709.13
2022-08-16T12:11:33.183Z,100701.00
2022-08-16T12:14:04.277Z,100708.97
2022-08-16T12:16:34.859Z,100707.81
2022-08-16T12:19:05.771Z,100713.06
2022-08-16T12:21:59.342Z,100719.19
2022-08-16T12:24:28.618Z,100713.78
2022-08-16T12:26:59.916Z,100717.28
2022-08-16T12:29:30.622Z,100712.72
2022-08-16T12:32:35.891Z,100716.41
2022-08-16T12:34:53.075Z,100723.81
2022-08-16T12:37:27.536Z,100716.72
2022-08-16T12:39:59.240Z,100715.84
2022-08-16T12:42:35.555Z,100721.09
2022-08-16T12:45:06.815Z,100725.50
2022-08-16T12:47:49.225Z,100728.94
2022-08-16T12:50:19.178Z,100718.91
2022-08-16T12:52:53.544Z,100722.50
2022-08-16T12:55:24.298Z,100728.06
2022-08-16T12:58:14.231Z,100729.34
2022-08-16T13:01:01.843Z,100729.63
2022-08-16T13:03:32.464Z,100730.81
2022-08-16T13:06:10.370Z,100738.97
2022-08-16T13:08:46.496Z,100732.59
2022-08-16T13:11:17.790Z,100736.25
2022-08-16T13:13:47.646Z,100741.81
2022-08-16T13:16:25.095Z,100743.72
2022-08-16T13:18:57.111Z,100745.63
2022-08-16T13:21:26.926Z,100744.69
2022-08-16T13:23:59.406Z,100749.28
2022-08-16T13:26:34.130Z,100745.78
2022-08-16T13:29:03.836Z,100750.47
2022-08-16T13:31:35.559Z,100752.22
2022-08-16T13:34:09.295Z,100756.78
2022-08-16T13:36:48.475Z,100763.38
2022-08-16T13:39:22.655Z,100759.28
2022-08-16T13:41:54.523Z,100765.00
2022-08-16T13:44:48.670Z,100773.41
2022-08-16T13:47:14.315Z,100763.75
2022-08-16T13:49:46.505Z,100765.75
2022-08-16T13:52:16.499Z,100773.88
2022-08-16T13:54:49.181Z,100781.09
2022-08-16T13:57:19.614Z,100777.66
2022-08-16T13:59:50.417Z,100775.09
2022-08-16T14:02:27.406Z,100778.75
2022-08-16T14:05:02.969Z,100769.00
2022-08-16T14:07:36.380Z,100766.22
2022-08-16T14:10:15.631Z,100767.03
2022-08-16T14:12:45.472Z,100778.75
2022-08-16T14:15:18.630Z,100774.22
2022-08-16T14:18:17.337Z,100782.22
2022-08-16T14:20:38.069Z,100777.50
2022-08-16T14:23:08.538Z,100785.66
2022-08-16T14:25:41.289Z,100785.59
2022-08-16T14:28:11.263Z,100784.72
2022-08-16T14:30:42.550Z,100785.78
2022-08-16T14:33:12.322Z,100786.00
2022-08-16T14:35:50.107Z,100786.09
2022-08-16T14:38:23.501Z,100787.09
2022-08-16T14:40:56.668Z,100792.56
2022-08-16T14:43:29.546Z,100785.47
2022-08-16T14:46:00.804Z,100800.09
2022-08-16T14:48:31.625Z,100792.03
2022-08-16T14:51:01.601Z,100794.81
2022-08-16T14:53:32.790Z,100797.63
2022-08-16T14:56:05.380Z,100802.88
2022-08-16T14:58:38.092Z,100800.09
2022-08-16T15:01:09.894Z,100801.09
2022-08-16T15:03:44.482Z,100797.72
2022-08-16T15:06:16.242Z,100808.84
2022-08-16T15:08:46.592Z,100816.16
2022-08-16T15:11:19.098Z,100806.28
2022-08-16T15:13:55.081Z,100812.66
2022-08-16T15:16:29.098Z,100813.75
2022-08-16T15:19:00.233Z,100813.06
2022-08-16T15:21:31.119Z,100820.53
2022-08-16T15:24:02.126Z,100816.13
2022-08-16T15:26:45.249Z,100812.50
2022-08-16T15:29:16.869Z,100815.22
2022-08-16T15:31:48.252Z,100813.47
2022-08-16T15:34:21.971Z,100808.94
2022-08-16T15:36:56.067Z,100813.47
2022-08-16T15:39:35.708Z,100813.47
2022-08-16T15:42:15.708Z,100817.16
2022-08-16T15:44:58.566Z,100819.03
2022-08-16T15:47:29.195Z,100823.56
2022-08-16T15:49:59.288Z,100819.22
2022-08-16T15:52:32.902Z,100823.00
2022-08-16T15:55:13.145Z,100817.88
2022-08-16T15:57:58.530Z,100823.59
2022-08-16T16:00:28.361Z,100829.25
2022-08-16T16:03:04.351Z,100822.22
2022-08-16T16:05:40.076Z,100829.72
2022-08-16T16:08:13.503Z,100834.56
2022-08-16T16:10:54.363Z,100832.19
2022-08-16T16:13:27.185Z,100833.19
2022-08-16T16:16:02.946Z,100831.34
2022-08-16T16:18:34.421Z,100830.53
2022-08-16T16:21:06.602Z,100831.63
2022-08-16T16:23:41.234Z,100831.91
2022-08-16T16:26:23.831Z,100833.19
2022-08-16T16:29:07.736Z,100836.28
2022-08-16T16:31:40.865Z,100843.88
2022-08-16T16:34:13.762Z,100843.31
2022-08-16T16:36:48.329Z,100844.47
2022-08-16T16:39:18.437Z,100841.94
2022-08-16T16:41:48.173Z,100841.13
2022-08-16T16:44:31.744Z,100843.94
2022-08-16T16:47:01.702Z,100847.84
2022-08-16T16:49:33.935Z,100847.13
2022-08-16T16:52:06.618Z,100844.78
2022-08-16T16:54:37.854Z,100854.00
2022-08-16T16:57:27.625Z,100858.56
2022-08-16T16:59:57.756Z,100868.56
2022-08-16T17:02:46.115Z,100868.72
2022-08-16T17:05:17.914Z,100868.94
2022-08-16T17:07:47.917Z,100868.16
2022-08-16T17:10:46.872Z,100874.56
2022-08-16T17:13:08.338Z,100878.47
2022-08-16T17:15:40.680Z,100876.88
2022-08-16T17:21:00.700Z,100883.47
2022-08-16T17:23:59.089Z,100888.88
2022-08-16T17:26:20.212Z,100893.50
2022-08-16T17:29:00.034Z,100899.94
2022-08-16T17:31:40.858Z,100903.72
2022-08-16T17:34:30.437Z,100903.94
2022-08-16T17:37:04.941Z,100903.22
2022-08-16T17:39:26.514Z,100880.59
2022-08-16T17:39:54.871Z,100907.91
2022-08-16T17:42:26.147Z,100911.72
2022-08-16T17:44:56.135Z,100913.56
2022-08-16T17:47:28.542Z,100912.88
2022-08-16T17:49:58.964Z,100913.91
2022-08-16T17:52:29.354Z,100907.69
2022-08-16T17:54:59.035Z,100916.72
2022-08-16T17:57:29.249Z,100912.25
2022-08-16T17:59:59.229Z,100909.63
2022-08-16T18:02:53.023Z,100917.75
2022-08-16T18:05:22.023Z,100917.03
2022-08-16T18:07:51.737Z,100923.50
2022-08-16T18:10:33.260Z,100924.66
2022-08-16T18:13:07.758Z,100932.00
2022-08-16T18:15:37.658Z,100928.50
2022-08-16T18:18:10.304Z,100935.72
2022-08-16T18:20:52.613Z,100936.78
2022-08-16T18:23:24.028Z,100936.94
2022-08-16T18:25:56.241Z,100945.09
2022-08-16T18:28:27.228Z,100947.78
2022-08-16T18:31:01.235Z,100950.50
2022-08-16T18:33:43.819Z,100954.97
2022-08-16T18:36:20.608Z,100950.53
2022-08-16T18:38:51.456Z,100955.03
2022-08-16T18:41:22.321Z,100958.63
2022-08-16T18:44:22.946Z,100963.16
2022-08-16T18:46:42.868Z,100967.78
2022-08-16T18:49:17.995Z,100961.63
2022-08-16T18:51:48.254Z,100967.00
2022-08-16T18:54:20.887Z,100958.06
2022-08-16T18:56:55.849Z,100958.19
2022-08-16T18:59:27.138Z,100964.63
2022-08-16T19:02:00.108Z,100971.88
2022-08-16T19:04:54.978Z,100964.81
2022-08-16T19:07:30.957Z,100962.28
2022-08-16T19:10:02.395Z,100967.84
2022-08-16T19:12:37.804Z,100978.63
2022-08-16T19:15:15.802Z,100982.25
2022-08-16T19:17:46.219Z,100986.84
2022-08-16T19:20:21.033Z,100976.13
2022-08-16T19:23:05.889Z,100978.94
2022-08-16T19:25:48.623Z,100980.91
2022-08-16T19:28:52.087Z,100982.84
2022-08-16T19:31:15.831Z,100989.28
2022-08-16T19:34:02.648Z,100985.88
2022-08-16T19:36:41.112Z,100978.09
2022-08-16T19:39:14.475Z,100985.41
2022-08-16T19:41:46.679Z,100987.41
2022-08-16T19:44:24.056Z,100991.06
2022-08-16T19:46:54.412Z,101001.91
2022-08-16T19:49:24.132Z,101005.63
2022-08-16T19:51:56.497Z,101009.34
2022-08-16T19:54:26.281Z,101009.47
2022-08-16T19:56:56.006Z,101021.19
2022-08-16T19:59:39.585Z,101031.03
2022-08-16T20:02:35.903Z,101038.25
2022-08-16T20:05:08.461Z,101044.63
2022-08-16T20:07:40.858Z,101046.44
2022-08-16T20:10:12.386Z,101034.00
2022-08-16T20:12:42.795Z,101029.59
2022-08-16T20:15:30.680Z,101026.16
2022-08-16T20:18:00.929Z,101029.00
2022-08-16T20:20:31.295Z,101024.78
2022-08-16T20:23:04.231Z,101031.31
2022-08-16T20:25:41.130Z,101036.78
2022-08-16T20:28:11.404Z,101037.81
2022-08-16T20:31:02.151Z,101053.94
2022-08-16T20:33:32.220Z,101049.50
2022-08-16T20:36:02.039Z,101060.19
2022-08-16T20:38:36.917Z,101055.66
2022-08-16T20:41:06.784Z,101049.38
2022-08-16T20:43:36.530Z,101042.22
2022-08-16T20:46:07.029Z,101043.09
2022-08-16T20:48:36.936Z,101051.16
2022-08-16T20:51:10.580Z,101052.13
2022-08-16T20:53:45.002Z,101050.38
2022-08-16T20:56:15.189Z,101050.47
2022-08-16T20:58:44.976Z,101045.22
2022-08-16T21:01:14.796Z,101052.41
2022-08-16T21:03:44.566Z,101063.19
2022-08-16T21:06:14.362Z,101071.22
2022-08-16T21:08:52.637Z,101073.91
2022-08-16T21:11:27.658Z,101084.63
2022-08-16T21:14:00.577Z,101087.34
2022-08-16T21:16:30.643Z,101095.47
2022-08-16T21:19:00.558Z,101094.69
2022-08-16T21:21:31.974Z,101095.72
2022-08-16T21:24:06.383Z,101092.22
2022-08-16T21:26:38.950Z,101090.44
2022-08-16T21:29:11.342Z,101087.81
2022-08-16T21:31:45.987Z,101091.44
2022-08-16T21:34:15.718Z,101095.13
2022-08-16T21:36:45.441Z,101092.50
2022-08-16T21:39:17.786Z,101095.25
2022-08-16T21:41:48.335Z,101079.28
2022-08-16T21:44:18.059Z,101085.63
2022-08-16T21:46:47.821Z,101082.94
2022-08-16T21:49:17.570Z,101084.75
2022-08-16T21:51:47.451Z,101082.09
2022-08-16T21:54:19.748Z,101081.22
2022-08-16T21:56:49.460Z,101086.69
2022-08-16T21:59:19.301Z,101091.22
2022-08-16T22:01:49.075Z,101088.56
2022-08-16T22:04:36.532Z,101094.91
2022-08-16T22:07:09.519Z,101094.97
2022-08-16T22:09:42.308Z,101106.56
2022-08-16T22:12:17.479Z,101093.16
2022-08-16T22:14:51.285Z,101097.63
2022-08-16T22:17:21.115Z,101102.97
2022-08-16T22:19:52.138Z,101094.91
2022-08-16T22:22:21.899Z,101095.75
2022-08-16T22:24:54.495Z,101098.38
2022-08-16T22:27:24.213Z,101097.47
2022-08-16T22:29:55.768Z,101088.56
2022-08-16T22:32:25.488Z,101083.19
2022-08-16T22:34:55.964Z,101077.88
2022-08-16T22:37:30.597Z,101080.63
2022-08-16T22:40:03.041Z,101083.25
2022-08-16T22:42:32.893Z,101083.25
2022-08-16T22:45:07.910Z,101078.81
2022-08-16T22:47:37.653Z,101083.31
2022-08-16T22:50:08.211Z,101076.25
2022-08-16T22:52:55.635Z,101086.19
2022-08-16T22:55:29.590Z,101092.47
2022-08-16T22:57:59.832Z,101093.38
2022-08-16T23:00:31.692Z,101090.69
2022-08-16T23:03:03.137Z,101082.59
2022-08-16T23:05:36.101Z,101098.69
2022-08-16T23:08:08.300Z,101095.06
2022-08-16T23:10:40.701Z,101097.69
2022-08-16T23:13:11.148Z,101093.16
2022-08-16T23:15:47.512Z,101085.06
2022-08-16T23:18:26.809Z,101085.94
2022-08-16T23:20:58.810Z,101081.44
2022-08-16T23:23:29.203Z,101084.13
2022-08-16T23:26:02.361Z,101085.00
2022-08-16T23:28:33.687Z,101083.19
2022-08-16T23:31:03.492Z,101085.00
2022-08-16T23:33:33.272Z,101088.56
2022-08-16T23:36:04.262Z,101083.19
2022-08-16T23:38:39.453Z,101076.94
2022-08-16T23:41:14.398Z,101080.56
2022-08-16T23:43:46.228Z,101079.75
2022-08-16T23:46:18.170Z,101069.13
2022-08-16T23:49:57.381Z,101070.09
2022-08-16T23:51:38.120Z,101076.38
2022-08-16T23:54:09.869Z,101081.75
2022-08-16T23:56:42.194Z,101081.72
2022-08-16T23:59:11.935Z,101087.09
